Time;durP1;ratioP1;P1;durP2;ratioP2;P2;SDS_P1;SDS_P2;PMS_P1;PMS_P2;Temp;Humidity;BMP_temperature;BMP_pressure;BME280_temperature;BME280_humidity;BME280_pressure;Samples;Min_cycle;Max_cycle;Signal;HPM_P1;HPM_P2
2022/03/26 00:00:31;;;;;;;43.73;41.37;;;7.40;99.90;;;;;;4434939;32;20173;-58
2022/03/26 00:02:58;;;;;;;37.13;35.07;;;7.40;99.90;;;;;;4435793;32;20166;-58
2022/03/26 00:05:25;;;;;;;39.87;37.53;;;7.30;99.90;;;;;;4436613;32;20624;-58
2022/03/26 00:07:52;;;;;;;41.83;39.57;;;7.30;99.90;;;;;;4438905;32;20554;-57
2022/03/26 00:10:24;;;;;;;38.90;36.87;;;7.30;99.90;;;;;;4437728;32;20178;-58
2022/03/26 00:12:52;;;;;;;37.57;35.57;;;7.30;99.90;;;;;;4437992;32;20168;-59
2022/03/26 00:15:21;;;;;;;39.90;37.60;;;7.30;99.90;;;;;;4432300;32;20203;-58
2022/03/26 00:17:47;;;;;;;40.67;38.40;;;7.30;99.90;;;;;;4438893;32;20620;-58
2022/03/26 00:20:16;;;;;;;42.90;40.87;;;7.20;99.90;;;;;;4437531;32;20211;-58
2022/03/26 00:22:43;;;;;;;38.43;36.40;;;7.20;99.90;;;;;;4438141;32;20602;-58
2022/03/26 00:25:13;;;;;;;40.60;38.13;;;7.20;99.90;;;;;;4434514;32;20162;-58
2022/03/26 00:27:42;;;;;;;39.13;37.00;;;7.10;99.90;;;;;;4438258;32;20167;-59
2022/03/26 00:30:10;;;;;;;42.40;40.17;;;7.10;99.90;;;;;;4437339;32;20214;-58
2022/03/26 00:32:38;;;;;;;40.60;38.47;;;7.10;99.90;;;;;;4438056;32;20139;-58
2022/03/26 00:35:12;;;;;;;40.07;38.20;;;7.00;99.90;;;;;;4437367;32;20270;-58
2022/03/26 00:37:40;;;;;;;40.33;38.13;;;7.00;99.90;;;;;;4437701;32;20177;-58
2022/03/26 00:40:09;;;;;;;38.00;36.07;;;6.90;99.90;;;;;;4432012;32;20147;-58
2022/03/26 00:42:39;;;;;;;42.43;40.10;;;6.80;99.90;;;;;;4437926;32;20599;-58
2022/03/26 00:45:07;;;;;;;43.10;40.97;;;6.90;99.90;;;;;;4437803;32;20203;-58
2022/03/26 00:47:34;;;;;;;44.07;41.87;;;6.80;99.90;;;;;;4437504;32;20497;-58
2022/03/26 00:50:03;;;;;;;43.00;40.73;;;6.80;99.90;;;;;;4436704;32;20241;-59
2022/03/26 00:52:31;;;;;;;42.90;40.43;;;6.80;99.90;;;;;;4437506;32;20250;-58
2022/03/26 00:54:58;;;;;;;45.00;42.87;;;6.80;99.90;;;;;;4436861;32;20223;-58
2022/03/26 00:57:24;;;;;;;48.13;45.63;;;6.70;99.90;;;;;;4438851;32;20214;-56
2022/03/26 00:59:51;;;;;;;43.33;41.13;;;6.70;99.90;;;;;;4429632;32;20174;-58
2022/03/26 01:02:18;;;;;;;44.97;42.87;;;6.70;99.90;;;;;;4433289;32;20208;-58
2022/03/26 01:04:48;;;;;;;48.90;46.50;;;6.60;99.90;;;;;;4422227;32;20219;-58
2022/03/26 01:07:16;;;;;;;46.53;44.13;;;6.60;99.90;;;;;;4428137;32;20170;-58
2022/03/26 01:09:43;;;;;;;48.83;46.40;;;6.60;99.90;;;;;;4437176;32;20240;-58
2022/03/26 01:12:12;;;;;;;47.97;45.57;;;6.60;99.90;;;;;;4437485;32;20136;-57
2022/03/26 01:14:39;;;;;;;42.33;39.83;;;6.50;99.90;;;;;;4438092;32;20143;-58
2022/03/26 01:17:06;;;;;;;42.90;40.73;;;6.50;99.90;;;;;;4435197;32;20191;-58
2022/03/26 01:19:34;;;;;;;41.30;39.20;;;6.50;99.90;;;;;;4436688;32;20182;-58
2022/03/26 01:22:01;;;;;;;41.40;38.93;;;6.40;99.90;;;;;;4430711;32;20170;-56
2022/03/26 01:24:31;;;;;;;41.80;39.73;;;6.40;99.90;;;;;;4421781;32;20246;-56
2022/03/26 01:26:58;;;;;;;41.80;39.43;;;6.40;99.90;;;;;;4423149;32;20159;-58
2022/03/26 01:29:25;;;;;;;41.63;39.27;;;6.40;99.90;;;;;;4436916;32;20529;-57
2022/03/26 01:31:52;;;;;;;46.63;44.20;;;6.40;99.90;;;;;;4438812;32;20207;-57
2022/03/26 01:34:19;;;;;;;40.00;37.83;;;6.40;99.90;;;;;;4438727;32;20143;-58
2022/03/26 01:36:46;;;;;;;44.27;41.73;;;6.30;99.90;;;;;;4435004;32;20206;-58
2022/03/26 01:39:13;;;;;;;42.70;40.50;;;6.30;99.90;;;;;;4436300;32;20614;-58
2022/03/26 01:41:43;;;;;;;38.60;36.50;;;6.30;99.90;;;;;;4436900;32;20170;-58
2022/03/26 01:44:13;;;;;;;39.20;36.97;;;6.30;99.90;;;;;;4437328;32;20147;-58
2022/03/26 01:46:47;;;;;;;37.83;35.80;;;6.30;99.90;;;;;;4436873;32;20196;-56
2022/03/26 01:49:14;;;;;;;36.90;34.63;;;6.30;99.90;;;;;;4436330;32;20158;-56
2022/03/26 01:51:42;;;;;;;40.33;38.03;;;6.30;99.90;;;;;;4436624;32;20223;-57
2022/03/26 01:54:09;;;;;;;40.43;37.53;;;6.20;99.90;;;;;;4435887;32;20143;-55
2022/03/26 01:56:36;;;;;;;38.57;36.17;;;6.20;99.90;;;;;;4427639;32;20182;-57
2022/03/26 01:59:05;;;;;;;35.30;33.20;;;6.20;99.90;;;;;;4435369;32;20181;-57
2022/03/26 02:01:34;;;;;;;39.03;36.93;;;6.20;99.90;;;;;;4427537;32;20218;-58
2022/03/26 02:04:01;;;;;;;37.07;34.93;;;6.10;99.90;;;;;;4421274;32;20535;-58
2022/03/26 02:06:31;;;;;;;37.13;34.80;;;6.20;99.90;;;;;;4430419;32;20202;-57
2022/03/26 02:08:59;;;;;;;36.00;33.80;;;6.10;99.90;;;;;;4431141;32;20139;-58
2022/03/26 02:11:25;;;;;;;36.10;33.87;;;6.10;99.90;;;;;;4431346;32;20159;-58
2022/03/26 02:13:53;;;;;;;37.27;35.20;;;6.00;99.90;;;;;;4436338;32;20237;-58
2022/03/26 02:16:22;;;;;;;35.43;33.43;;;5.90;99.90;;;;;;4436510;32;20182;-57
2022/03/26 02:18:52;;;;;;;36.10;33.93;;;6.00;99.90;;;;;;4433207;32;20284;-58
2022/03/26 02:21:21;;;;;;;34.13;32.03;;;6.00;99.90;;;;;;4422314;32;20432;-58
2022/03/26 02:23:49;;;;;;;36.23;34.33;;;6.00;99.90;;;;;;4431753;32;20166;-59
2022/03/26 02:26:17;;;;;;;40.03;37.63;;;5.90;99.90;;;;;;4427645;32;20254;-58
2022/03/26 02:28:45;;;;;;;37.80;35.30;;;5.90;99.90;;;;;;4434308;32;20150;-58
2022/03/26 02:31:12;;;;;;;39.70;37.60;;;5.90;99.90;;;;;;4435681;32;20230;-58
2022/03/26 02:33:40;;;;;;;35.57;33.17;;;5.90;99.90;;;;;;4432962;32;20175;-58
2022/03/26 02:36:09;;;;;;;34.43;32.13;;;5.90;99.90;;;;;;4435011;32;20251;-57
2022/03/26 02:38:40;;;;;;;34.80;32.73;;;5.90;99.90;;;;;;4436893;32;20258;-57
2022/03/26 02:41:08;;;;;;;32.97;31.23;;;5.80;99.90;;;;;;4436849;32;20471;-58
2022/03/26 02:43:35;;;;;;;36.03;33.93;;;5.90;99.90;;;;;;4435974;32;20139;-58
2022/03/26 02:46:03;;;;;;;32.70;30.80;;;5.90;99.90;;;;;;4431923;32;20159;-58
2022/03/26 02:48:30;;;;;;;33.70;31.60;;;5.90;99.90;;;;;;4429928;32;20509;-57
2022/03/26 02:50:57;;;;;;;34.40;32.10;;;5.90;99.90;;;;;;4436394;32;20193;-58
2022/03/26 02:53:26;;;;;;;36.57;33.90;;;5.90;99.90;;;;;;4434254;32;20223;-57
2022/03/26 02:55:54;;;;;;;34.43;32.33;;;5.80;99.90;;;;;;4417517;32;20298;-58
2022/03/26 02:58:21;;;;;;;31.03;29.23;;;5.80;99.90;;;;;;4346488;32;2420125;-58
2022/03/26 03:00:48;;;;;;;34.90;32.70;;;5.80;99.90;;;;;;4427421;32;20582;-57
2022/03/26 03:03:15;;;;;;;33.00;30.80;;;5.80;99.90;;;;;;4420743;32;20163;-59
2022/03/26 03:05:42;;;;;;;34.13;31.70;;;5.80;99.90;;;;;;4421074;32;20431;-58
2022/03/26 03:08:09;;;;;;;31.77;29.77;;;5.80;99.90;;;;;;4422337;32;20135;-58
2022/03/26 03:10:36;;;;;;;33.03;31.03;;;5.80;99.90;;;;;;4421301;32;20240;-58
2022/03/26 03:13:04;;;;;;;28.13;26.50;;;5.80;99.90;;;;;;4421254;32;20171;-58
2022/03/26 03:15:34;;;;;;;31.67;29.83;;;5.80;99.90;;;;;;4421417;32;20164;-58
2022/03/26 03:18:02;;;;;;;30.93;29.00;;;5.80;99.90;;;;;;4427671;32;20185;-58
2022/03/26 03:20:33;;;;;;;29.93;28.17;;;5.70;99.90;;;;;;4425294;32;20172;-56
2022/03/26 03:23:00;;;;;;;32.13;30.17;;;5.70;99.90;;;;;;4435676;32;20478;-58
2022/03/26 03:25:29;;;;;;;30.17;28.13;;;5.70;99.90;;;;;;4435756;32;20163;-58
2022/03/26 03:27:57;;;;;;;31.00;29.10;;;5.70;99.90;;;;;;4435877;32;20173;-58
2022/03/26 03:30:26;;;;;;;32.03;29.43;;;5.70;99.90;;;;;;4433042;32;20163;-58
2022/03/26 03:32:53;;;;;;;29.93;28.00;;;5.70;99.90;;;;;;4426993;32;20159;-56
2022/03/26 03:35:22;;;;;;;33.33;31.13;;;5.60;99.90;;;;;;4423717;32;20617;-58
2022/03/26 03:37:52;;;;;;;30.07;27.93;;;5.60;99.90;;;;;;4437422;32;20161;-57
2022/03/26 03:40:19;;;;;;;30.87;28.80;;;5.60;99.90;;;;;;4434214;32;20699;-55
2022/03/26 03:42:47;;;;;;;33.27;31.00;;;5.60;99.90;;;;;;4423347;32;20159;-57
2022/03/26 03:45:14;;;;;;;29.00;27.20;;;5.60;99.90;;;;;;4429141;32;20274;-58
2022/03/26 03:47:42;;;;;;;34.80;32.30;;;5.60;99.90;;;;;;4424990;32;20132;-55
2022/03/26 03:50:10;;;;;;;33.27;31.10;;;5.60;99.90;;;;;;4423297;32;20223;-55
2022/03/26 03:52:46;;;;;;;34.70;32.50;;;5.60;99.90;;;;;;4434127;32;20169;-56
2022/03/26 03:55:13;;;;;;;32.47;30.07;;;5.60;99.90;;;;;;4430216;32;20583;-56
2022/03/26 03:57:43;;;;;;;30.43;28.63;;;5.50;99.90;;;;;;4422881;32;20171;-56
2022/03/26 04:00:11;;;;;;;31.73;29.57;;;5.60;99.90;;;;;;4427536;32;20227;-54
2022/03/26 04:02:38;;;;;;;28.13;26.43;;;5.60;99.90;;;;;;4423649;32;20674;-56
2022/03/26 04:05:09;;;;;;;32.03;30.03;;;5.50;99.90;;;;;;4424249;32;20602;-56
2022/03/26 04:07:36;;;;;;;31.53;29.07;;;5.60;99.90;;;;;;4429353;32;20162;-55
2022/03/26 04:10:04;;;;;;;32.07;29.90;;;5.50;99.90;;;;;;4424747;32;20136;-56
2022/03/26 04:12:31;;;;;;;32.73;30.47;;;5.50;99.90;;;;;;4426541;32;20155;-56
2022/03/26 04:15:00;;;;;;;33.47;31.10;;;5.50;99.90;;;;;;4424539;32;20253;-57
2022/03/26 04:17:29;;;;;;;33.13;30.90;;;5.60;99.90;;;;;;4424470;32;20555;-57
2022/03/26 04:19:56;;;;;;;33.00;31.13;;;5.60;99.90;;;;;;4424448;32;20524;-58
2022/03/26 04:22:24;;;;;;;33.63;31.43;;;5.60;99.90;;;;;;4424153;32;20223;-57
2022/03/26 04:24:51;;;;;;;32.37;30.17;;;5.60;99.90;;;;;;4421505;32;20537;-57
2022/03/26 04:27:18;;;;;;;36.17;33.87;;;5.60;99.90;;;;;;4422647;32;20202;-56
2022/03/26 04:29:46;;;;;;;32.70;30.57;;;5.60;99.90;;;;;;4423545;32;20174;-56
2022/03/26 04:32:13;;;;;;;32.80;30.87;;;5.50;99.90;;;;;;4424989;32;20163;-58
2022/03/26 04:34:40;;;;;;;30.60;28.73;;;5.50;99.90;;;;;;4422552;32;20687;-57
2022/03/26 04:37:07;;;;;;;32.03;30.03;;;5.50;99.90;;;;;;4423218;32;20524;-59
2022/03/26 04:39:39;;;;;;;36.40;33.80;;;5.50;99.90;;;;;;4422149;32;20214;-58
2022/03/26 04:42:06;;;;;;;38.33;35.47;;;5.50;99.90;;;;;;4424828;32;20147;-58
2022/03/26 04:44:33;;;;;;;34.17;31.53;;;5.50;99.90;;;;;;4422902;32;20211;-57
2022/03/26 04:47:00;;;;;;;32.33;30.03;;;5.50;99.90;;;;;;4422343;32;20163;-57
2022/03/26 04:49:26;;;;;;;36.77;34.10;;;5.50;99.90;;;;;;4422848;32;20168;-57
2022/03/26 04:51:53;;;;;;;33.93;31.73;;;5.40;99.90;;;;;;4424137;32;20550;-57
2022/03/26 04:54:20;;;;;;;31.83;29.63;;;5.30;99.90;;;;;;4423874;32;20141;-58
2022/03/26 04:56:48;;;;;;;34.50;32.30;;;5.30;99.90;;;;;;4424869;32;20170;-58
2022/03/26 04:59:15;;;;;;;32.23;29.87;;;5.30;99.90;;;;;;4437606;32;20202;-56
2022/03/26 05:01:44;;;;;;;32.83;30.70;;;5.30;99.90;;;;;;4437305;32;20155;-57
2022/03/26 05:04:11;;;;;;;34.60;32.00;;;5.30;99.90;;;;;;4430274;32;20212;-56
2022/03/26 05:06:38;;;;;;;35.27;33.00;;;5.20;99.90;;;;;;4422253;32;20599;-57
2022/03/26 05:09:05;;;;;;;35.10;32.60;;;5.20;99.90;;;;;;4422632;32;20135;-57
2022/03/26 05:11:31;;;;;;;32.57;30.33;;;5.10;99.90;;;;;;4421879;32;20139;-58
2022/03/26 05:14:00;;;;;;;31.33;29.03;;;5.20;99.90;;;;;;4426760;32;20265;-58
2022/03/26 05:16:26;;;;;;;33.77;31.17;;;5.10;99.90;;;;;;4433851;32;20203;-56
2022/03/26 05:18:53;;;;;;;34.03;31.47;;;5.10;99.90;;;;;;4439178;32;20574;-57
2022/03/26 05:21:20;;;;;;;34.27;31.83;;;5.10;99.90;;;;;;4438915;32;20166;-57
2022/03/26 05:23:47;;;;;;;35.13;32.63;;;5.10;99.90;;;;;;4434992;32;20498;-55
2022/03/26 05:26:14;;;;;;;35.37;32.63;;;5.00;99.90;;;;;;4437096;32;20202;-56
2022/03/26 05:28:41;;;;;;;36.43;34.00;;;5.00;99.90;;;;;;4437131;32;20144;-57
2022/03/26 05:31:09;;;;;;;35.63;33.13;;;5.00;99.90;;;;;;4422873;32;20165;-56
2022/03/26 05:33:36;;;;;;;33.63;31.30;;;5.00;99.90;;;;;;4423024;32;20223;-55
2022/03/26 05:36:04;;;;;;;33.13;31.03;;;5.00;99.90;;;;;;4422067;32;20154;-56
2022/03/26 05:38:32;;;;;;;39.37;36.53;;;5.10;99.90;;;;;;4425290;32;20170;-56
2022/03/26 05:40:59;;;;;;;36.40;34.03;;;5.10;99.90;;;;;;4431365;32;20555;-56
2022/03/26 05:43:26;;;;;;;39.77;36.63;;;5.10;99.90;;;;;;4433700;32;20171;-57
2022/03/26 05:45:53;;;;;;;36.37;33.93;;;5.20;99.90;;;;;;4421286;32;20234;-58
2022/03/26 05:48:21;;;;;;;40.00;37.53;;;5.20;99.90;;;;;;4421518;32;20143;-57
2022/03/26 05:50:48;;;;;;;36.43;34.00;;;5.30;99.90;;;;;;4421769;32;20211;-56
2022/03/26 05:53:15;;;;;;;39.67;37.13;;;5.30;99.90;;;;;;4421481;32;20139;-56
2022/03/26 05:55:42;;;;;;;38.57;35.83;;;5.40;99.90;;;;;;4425581;32;20226;-57
2022/03/26 05:58:10;;;;;;;36.77;34.47;;;5.40;99.90;;;;;;4424362;32;20551;-58
2022/03/26 06:00:37;;;;;;;39.37;36.80;;;5.50;99.90;;;;;;4422032;32;20468;-57
2022/03/26 06:03:04;;;;;;;37.87;35.63;;;5.60;99.90;;;;;;4421965;32;20140;-57
2022/03/26 06:05:33;;;;;;;42.63;39.60;;;5.60;99.90;;;;;;4422277;32;20241;-58
2022/03/26 06:07:59;;;;;;;43.83;41.23;;;5.70;99.90;;;;;;4422655;32;20201;-54
2022/03/26 06:10:26;;;;;;;40.53;38.23;;;5.70;99.90;;;;;;4421458;32;20570;-55
2022/03/26 06:12:53;;;;;;;42.70;39.70;;;5.80;99.90;;;;;;4421453;32;20212;-57
2022/03/26 06:15:20;;;;;;;42.40;40.00;;;5.90;99.90;;;;;;4424447;32;20177;-57
2022/03/26 06:17:47;;;;;;;46.37;43.30;;;5.90;99.90;;;;;;4427847;32;20151;-57
2022/03/26 06:20:14;;;;;;;47.93;44.90;;;6.00;99.90;;;;;;4421169;32;20143;-57
2022/03/26 06:22:42;;;;;;;44.43;41.70;;;6.10;99.90;;;;;;4421095;32;20155;-57
2022/03/26 06:25:09;;;;;;;53.90;50.80;;;6.20;99.90;;;;;;4426360;32;20139;-57
2022/03/26 06:27:37;;;;;;;50.97;48.07;;;6.30;99.90;;;;;;4421575;32;20155;-55
2022/03/26 06:30:04;;;;;;;51.40;48.27;;;6.30;99.90;;;;;;4421701;32;20158;-57
2022/03/26 06:32:31;;;;;;;46.93;44.13;;;6.40;99.90;;;;;;4421591;32;20148;-56
2022/03/26 06:34:58;;;;;;;50.87;47.53;;;6.50;99.90;;;;;;4426378;32;20601;-58
2022/03/26 06:37:25;;;;;;;48.47;45.70;;;6.60;99.90;;;;;;4436139;32;20162;-57
2022/03/26 06:39:53;;;;;;;51.90;48.90;;;6.70;99.90;;;;;;4436322;32;20582;-57
2022/03/26 06:42:20;;;;;;;50.77;47.70;;;6.80;99.90;;;;;;4422631;32;20171;-57
2022/03/26 06:44:47;;;;;;;55.93;52.43;;;6.90;99.90;;;;;;4433169;32;20174;-58
2022/03/26 06:47:14;;;;;;;54.83;51.30;;;7.00;99.90;;;;;;4422832;32;20467;-57
2022/03/26 06:49:41;;;;;;;56.67;52.77;;;7.10;99.90;;;;;;4420031;32;20148;-58
2022/03/26 06:52:09;;;;;;;50.03;46.83;;;7.20;99.90;;;;;;4419862;32;20148;-57
2022/03/26 06:54:36;;;;;;;48.27;44.63;;;7.30;99.90;;;;;;4421510;32;20219;-58
2022/03/26 06:57:07;;;;;;;46.53;43.17;;;7.50;99.90;;;;;;4420817;32;20167;-55
2022/03/26 06:59:34;;;;;;;45.70;42.70;;;7.60;99.90;;;;;;4420424;32;20145;-55
2022/03/26 07:02:01;;;;;;;49.00;45.40;;;7.70;99.90;;;;;;4420477;32;20211;-57
2022/03/26 07:04:28;;;;;;;45.53;42.23;;;7.80;99.90;;;;;;4420694;32;20219;-56
2022/03/26 07:06:55;;;;;;;46.40;43.47;;;7.90;99.90;;;;;;4432085;32;20148;-57
2022/03/26 07:09:23;;;;;;;47.03;44.13;;;8.00;99.90;;;;;;4422725;32;20271;-55
2022/03/26 07:11:50;;;;;;;48.93;45.40;;;8.20;99.90;;;;;;4419725;32;20517;-58
2022/03/26 07:14:20;;;;;;;47.77;44.57;;;8.30;99.90;;;;;;4419714;32;20260;-57
2022/03/26 07:16:47;;;;;;;44.17;41.07;;;8.50;99.90;;;;;;4422239;32;20194;-55
2022/03/26 07:19:22;;;;;;;45.17;42.13;;;8.60;99.90;;;;;;4424462;32;20164;-57
2022/03/26 07:21:49;;;;;;;43.53;40.57;;;8.70;99.90;;;;;;4428893;32;20602;-57
2022/03/26 07:24:20;;;;;;;39.80;36.97;;;8.90;99.90;;;;;;4423166;32;20161;-57
2022/03/26 07:26:47;;;;;;;41.63;39.00;;;8.90;99.90;;;;;;4426336;32;20233;-58
2022/03/26 07:29:14;;;;;;;40.60;37.57;;;9.10;99.90;;;;;;4423527;32;20218;-57
2022/03/26 07:31:42;;;;;;;37.03;34.17;;;9.20;99.90;;;;;;4425226;32;20161;-57
2022/03/26 07:34:11;;;;;;;37.50;34.60;;;9.30;99.90;;;;;;4423131;32;20474;-57
2022/03/26 07:36:40;;;;;;;35.07;32.53;;;9.40;99.90;;;;;;4428975;32;20220;-58
2022/03/26 07:39:07;;;;;;;34.20;31.53;;;9.60;99.90;;;;;;4435532;32;20146;-58
2022/03/26 07:41:34;;;;;;;33.67;30.97;;;9.70;99.90;;;;;;4432294;32;20241;-54
2022/03/26 07:44:02;;;;;;;30.23;27.83;;;9.90;99.90;;;;;;4435667;32;20161;-58
2022/03/26 07:46:29;;;;;;;33.30;30.50;;;10.10;99.90;;;;;;4428488;32;20282;-54
2022/03/26 07:48:57;;;;;;;30.37;27.97;;;10.30;99.90;;;;;;4438543;32;20233;-57
2022/03/26 07:51:24;;;;;;;29.93;27.50;;;10.50;99.90;;;;;;4438420;32;20215;-57
2022/03/26 07:53:51;;;;;;;29.00;27.00;;;10.70;99.90;;;;;;4437911;32;20321;-57
2022/03/26 07:56:18;;;;;;;30.97;28.67;;;10.90;99.90;;;;;;4428327;32;20229;-57
2022/03/26 07:58:45;;;;;;;29.87;27.40;;;11.20;99.90;;;;;;4422549;32;20147;-57
2022/03/26 08:01:11;;;;;;;33.17;30.47;;;11.40;99.90;;;;;;4424404;32;20660;-58
2022/03/26 08:03:38;;;;;;;33.33;30.73;;;11.60;99.90;;;;;;4422926;32;20642;-58
2022/03/26 08:06:06;;;;;;;34.50;31.47;;;11.90;99.90;;;;;;4422920;32;20578;-58
2022/03/26 08:08:34;;;;;;;37.60;34.77;;;12.10;99.90;;;;;;4435246;32;20159;-54
2022/03/26 08:11:01;;;;;;;34.73;31.73;;;12.40;99.90;;;;;;4438750;32;20135;-57
2022/03/26 08:13:33;;;;;;;33.33;30.40;;;12.60;99.50;;;;;;4437914;32;20147;-58
2022/03/26 08:16:00;;;;;;;33.30;30.73;;;12.90;98.70;;;;;;4430522;32;20144;-58
2022/03/26 08:18:29;;;;;;;33.03;30.53;;;13.10;98.10;;;;;;4432922;32;20143;-59
2022/03/26 08:20:55;;;;;;;36.70;33.83;;;13.30;97.40;;;;;;4438951;32;20143;-59
2022/03/26 08:23:23;;;;;;;39.10;36.47;;;13.60;97.10;;;;;;4437975;32;20131;-59
2022/03/26 08:28:34;;;;;;;40.23;37.27;;;14.20;95.90;;;;;;4423946;32;20223;-59
2022/03/26 08:31:01;;;;;;;40.93;38.07;;;14.50;95.60;;;;;;4421927;32;20167;-59
2022/03/26 08:33:28;;;;;;;38.50;35.83;;;14.90;95.00;;;;;;4426574;32;20163;-59
2022/03/26 08:35:55;;;;;;;41.23;38.50;;;15.20;93.90;;;;;;4421267;32;20198;-59
2022/03/26 08:38:23;;;;;;;41.53;38.83;;;15.60;93.40;;;;;;4426019;32;20485;-58
2022/03/26 08:40:50;;;;;;;48.40;45.20;;;17.00;92.00;;;;;;4422986;32;20236;-58
2022/03/26 08:43:17;;;;;;;44.43;41.83;;;21.10;83.20;;;;;;4423445;32;20143;-59
2022/03/26 08:45:44;;;;;;;52.17;49.03;;;25.80;64.10;;;;;;4420007;32;20161;-59
2022/03/26 08:48:12;;;;;;;46.87;43.90;;;28.90;53.30;;;;;;4418369;32;20218;-59
2022/03/26 08:50:39;;;;;;;54.53;51.47;;;27.70;49.70;;;;;;4423703;32;20594;-59
2022/03/26 08:53:09;;;;;;;54.83;51.57;;;24.20;51.80;;;;;;4427413;32;20175;-59
2022/03/26 08:55:37;;;;;;;61.07;57.73;;;21.40;56.90;;;;;;4422004;32;20151;-59
2022/03/26 08:58:04;;;;;;;64.33;60.90;;;19.60;61.00;;;;;;4417855;32;20715;-58
2022/03/26 09:00:31;;;;;;;61.00;57.67;;;18.40;64.60;;;;;;4423685;32;20681;-59
2022/03/26 09:02:58;;;;;;;61.87;58.63;;;17.50;67.80;;;;;;4420318;32;20215;-58
2022/03/26 09:05:26;;;;;;;67.23;64.00;;;17.00;70.10;;;;;;4422940;32;20182;-60
2022/03/26 09:07:53;;;;;;;63.77;60.53;;;16.60;73.20;;;;;;4425238;32;20166;-59
2022/03/26 09:10:20;;;;;;;57.63;54.63;;;16.30;74.50;;;;;;4425998;32;20140;-60
2022/03/26 09:12:48;;;;;;;66.03;62.80;;;16.00;75.90;;;;;;4422714;32;20189;-60
2022/03/26 09:15:16;;;;;;;62.20;59.07;;;15.90;76.80;;;;;;4422900;32;20170;-60
2022/03/26 09:17:43;;;;;;;63.93;60.80;;;15.90;77.50;;;;;;4421800;32;20167;-59
2022/03/26 09:20:11;;;;;;;56.60;53.80;;;15.80;78.30;;;;;;4426869;32;20212;-59
2022/03/26 09:22:38;;;;;;;62.43;58.97;;;15.70;77.80;;;;;;4432129;32;20143;-58
2022/03/26 09:25:06;;;;;;;67.80;64.30;;;15.50;79.40;;;;;;4429731;32;20548;-58
2022/03/26 09:27:33;;;;;;;57.10;54.13;;;15.50;79.90;;;;;;4419353;32;20580;-59
2022/03/26 09:30:01;;;;;;;67.40;63.63;;;15.50;80.30;;;;;;4426147;32;20155;-59
2022/03/26 09:32:28;;;;;;;65.50;61.77;;;15.50;81.00;;;;;;4424436;32;20179;-58
2022/03/26 09:35:00;;;;;;;61.50;58.37;;;15.60;81.10;;;;;;4424331;32;20162;-59
2022/03/26 09:37:27;;;;;;;65.43;62.33;;;15.60;81.00;;;;;;4418383;32;20213;-59
2022/03/26 09:39:54;;;;;;;72.17;68.37;;;15.70;82.00;;;;;;4422592;32;20497;-58
2022/03/26 09:42:22;;;;;;;71.37;67.60;;;15.80;81.50;;;;;;4419309;32;20691;-58
2022/03/26 09:44:50;;;;;;;70.60;67.03;;;15.80;82.30;;;;;;4423144;32;20147;-59
2022/03/26 09:47:18;;;;;;;68.87;65.23;;;15.70;82.80;;;;;;4427647;32;20178;-60
2022/03/26 09:49:49;;;;;;;69.87;66.20;;;15.80;82.40;;;;;;4422434;32;20147;-60
2022/03/26 09:52:17;;;;;;;65.77;61.93;;;15.70;82.10;;;;;;4422157;32;20636;-58
2022/03/26 09:54:44;;;;;;;66.97;63.47;;;15.80;82.30;;;;;;4425392;32;20215;-60
2022/03/26 09:57:12;;;;;;;66.40;63.00;;;15.80;81.80;;;;;;4419585;32;20183;-59
2022/03/26 09:59:39;;;;;;;69.57;65.87;;;15.80;81.70;;;;;;4430196;32;20171;-61
2022/03/26 10:02:06;;;;;;;59.90;56.47;;;15.80;82.00;;;;;;4420396;32;20740;-58
2022/03/26 10:04:42;;;;;;;58.47;55.30;;;15.90;81.30;;;;;;4422181;32;20317;-60
2022/03/26 10:07:09;;;;;;;54.87;52.00;;;15.90;80.50;;;;;;4419671;32;20218;-62
2022/03/26 10:09:39;;;;;;;61.87;58.83;;;15.80;80.40;;;;;;4420872;32;20165;-58
2022/03/26 10:12:08;;;;;;;65.90;62.43;;;15.70;80.50;;;;;;4420431;32;20677;-58
2022/03/26 10:14:40;;;;;;;57.17;54.27;;;15.70;82.00;;;;;;4427357;32;20226;-59
2022/03/26 10:17:12;;;;;;;60.53;57.53;;;15.80;80.60;;;;;;4427176;32;20606;-61
2022/03/26 10:19:48;;;;;;;70.97;67.37;;;15.80;81.20;;;;;;4425324;32;20230;-59
2022/03/26 10:22:31;;;;;;;60.70;57.67;;;15.90;81.60;;;;;;4427090;32;20138;-59
2022/03/26 10:24:59;;;;;;;53.77;50.83;;;16.10;81.00;;;;;;4423377;32;20227;-59
2022/03/26 10:27:26;;;;;;;66.30;62.97;;;16.10;79.20;;;;;;4427675;32;20235;-59
2022/03/26 10:29:54;;;;;;;71.93;67.73;;;16.20;80.30;;;;;;4428788;32;20174;-59
2022/03/26 10:32:41;;;;;;;58.07;54.40;;;16.40;78.70;;;;;;4428404;32;20214;-57
2022/03/26 10:35:21;;;;;;;54.23;50.80;;;16.40;78.20;;;;;;4420160;32;20177;-59
2022/03/26 10:37:53;;;;;;;54.17;50.90;;;16.40;76.70;;;;;;4421855;32;20140;-60
2022/03/26 10:40:25;;;;;;;59.00;55.40;;;16.50;75.40;;;;;;4422015;32;20143;-59
2022/03/26 10:43:08;;;;;;;60.97;57.20;;;16.50;75.70;;;;;;4420863;32;20466;-60
2022/03/26 10:45:38;;;;;;;55.00;51.73;;;16.50;75.70;;;;;;4420957;32;20136;-59
2022/03/26 10:48:10;;;;;;;66.27;62.27;;;16.60;74.80;;;;;;4420527;32;20499;-59
2022/03/26 10:50:45;;;;;;;54.00;50.80;;;16.60;75.90;;;;;;4420508;32;20560;-59
2022/03/26 10:53:14;;;;;;;56.57;53.23;;;16.70;75.50;;;;;;4419825;32;20134;-59
2022/03/26 10:55:43;;;;;;;62.40;58.57;;;16.70;74.70;;;;;;4423478;32;20220;-59
2022/03/26 10:58:11;;;;;;;55.17;52.03;;;16.80;75.30;;;;;;4422025;32;20189;-59
2022/03/26 11:00:39;;;;;;;64.20;60.17;;;16.80;74.10;;;;;;4423361;32;20183;-60
2022/03/26 11:03:06;;;;;;;62.83;59.10;;;16.40;74.10;;;;;;4419960;32;20540;-59
2022/03/26 11:05:34;;;;;;;69.93;65.93;;;16.50;74.90;;;;;;4426037;32;20148;-58
2022/03/26 11:08:03;;;;;;;57.60;54.30;;;16.60;76.00;;;;;;4421826;32;20272;-60
2022/03/26 11:10:32;;;;;;;62.07;58.10;;;16.70;74.00;;;;;;4424526;32;20175;-59
2022/03/26 11:13:03;;;;;;;66.30;62.30;;;16.60;74.60;;;;;;4420512;32;20151;-59
2022/03/26 11:15:42;;;;;;;67.40;63.37;;;16.70;76.70;;;;;;4421866;32;20464;-59
2022/03/26 11:18:33;;;;;;;66.73;62.90;;;16.80;75.50;;;;;;4419072;32;20178;-60
2022/03/26 11:21:14;;;;;;;60.83;57.50;;;16.80;75.40;;;;;;4422383;32;20234;-60
2022/03/26 11:24:05;;;;;;;65.53;61.93;;;16.80;75.70;;;;;;4420838;32;20151;-59
2022/03/26 11:26:54;;;;;;;64.97;61.37;;;16.80;76.80;;;;;;4418427;32;20615;-58
2022/03/26 11:29:49;;;;;;;67.17;63.43;;;16.80;76.60;;;;;;4425326;32;20194;-59
2022/03/26 11:32:20;;;;;;;69.40;65.30;;;16.90;76.90;;;;;;4422777;32;20492;-59
2022/03/26 11:34:59;;;;;;;73.70;69.83;;;17.00;77.00;;;;;;4420450;32;20225;-59
2022/03/26 11:37:26;;;;;;;71.37;67.47;;;17.00;76.90;;;;;;4418185;32;20240;-59
2022/03/26 11:39:57;;;;;;;72.93;68.90;;;17.00;77.60;;;;;;4420174;32;20572;-59
2022/03/26 11:42:37;;;;;;;77.60;73.43;;;17.00;76.80;;;;;;4426167;32;20143;-60
2022/03/26 11:51:14;;;;;;;72.73;68.93;;;16.80;76.50;;;;;;4366421;32;20211;-59
2022/03/26 11:53:44;;;;;;;66.80;63.27;;;16.80;77.20;;;;;;4367017;32;20218;-60
2022/03/26 11:56:23;;;;;;;79.60;75.47;;;16.90;77.30;;;;;;4357527;32;20172;-58
2022/03/26 11:59:08;;;;;;;78.93;74.63;;;17.00;77.70;;;;;;4350515;32;20184;-60
2022/03/26 12:01:37;;;;;;;79.37;75.07;;;17.10;77.90;;;;;;4365968;32;20223;-59
2022/03/26 12:04:12;;;;;;;67.50;63.47;;;17.10;77.20;;;;;;4365392;32;20226;-58
2022/03/26 12:06:42;;;;;;;77.90;73.73;;;17.20;77.00;;;;;;4363838;32;20659;-59
2022/03/26 12:09:29;;;;;;;76.70;72.57;;;17.10;76.60;;;;;;4372531;32;20172;-60
2022/03/26 12:12:42;;;;;;;73.23;69.37;;;16.90;77.60;;;;;;4371066;32;20226;-59
2022/03/26 12:15:31;;;;;;;80.53;76.27;;;17.00;77.60;;;;;;4319890;33;20686;-57
2022/03/26 12:18:11;;;;;;;81.23;76.70;;;17.10;79.20;;;;;;4320270;33;20201;-58
2022/03/26 12:20:39;;;;;;;78.70;74.10;;;17.20;78.60;;;;;;4321385;33;20249;-58
2022/03/26 12:23:10;;;;;;;72.70;68.73;;;17.30;78.00;;;;;;4327144;33;20236;-58
2022/03/26 12:25:46;;;;;;;76.10;71.93;;;17.30;76.30;;;;;;4351685;32;20219;-58
2022/03/26 12:28:14;;;;;;;72.10;68.10;;;17.20;76.50;;;;;;4373795;32;20148;-60
2022/03/26 12:30:47;;;;;;;76.80;72.33;;;17.20;77.30;;;;;;4364268;32;20236;-60
2022/03/26 12:33:14;;;;;;;77.63;73.50;;;17.20;76.40;;;;;;4362358;32;20225;-59
2022/03/26 12:35:44;;;;;;;74.80;70.97;;;17.30;76.80;;;;;;4363357;32;20148;-59
2022/03/26 12:38:11;;;;;;;68.70;64.87;;;17.40;76.70;;;;;;4372655;32;20156;-58
2022/03/26 12:40:43;;;;;;;68.77;65.07;;;17.50;75.40;;;;;;4373429;32;20414;-60
2022/03/26 12:43:11;;;;;;;64.20;60.70;;;17.50;75.10;;;;;;4369911;32;20156;-58
2022/03/26 12:45:38;;;;;;;72.00;68.27;;;17.60;74.30;;;;;;4369518;32;20194;-59
2022/03/26 12:48:22;;;;;;;71.33;67.87;;;17.50;74.90;;;;;;4366865;32;20172;-60
2022/03/26 12:51:09;;;;;;;65.03;61.50;;;17.50;75.10;;;;;;4375261;32;20178;-59